sensor_id;sensor_type;location;lat;lon;timestamp;temperature;humidity
62573;DHT22;48626;51.678;5.806;2023-08-01T00:01:04;17.70;99.90
62573;DHT22;48626;51.678;5.806;2023-08-01T00:03:30;17.70;99.90
62573;DHT22;48626;51.678;5.806;2023-08-01T00:05:55;17.70;99.90
62573;DHT22;48626;51.678;5.806;2023-08-01T00:08:21;17.70;99.90
62573;DHT22;48626;51.678;5.806;2023-08-01T00:10:47;17.80;99.90
62573;DHT22;48626;51.678;5.806;2023-08-01T00:13:13;17.80;99.90
62573;DHT22;48626;51.678;5.806;2023-08-01T00:15:38;17.80;99.90
62573;DHT22;48626;51.678;5.806;2023-08-01T00:18:04;17.80;99.90
62573;DHT22;48626;51.678;5.806;2023-08-01T00:20:30;17.80;99.90
62573;DHT22;48626;51.678;5.806;2023-08-01T00:22:55;17.80;99.90
62573;DHT22;48626;51.678;5.806;2023-08-01T00:25:21;17.80;99.90
62573;DHT22;48626;51.678;5.806;2023-08-01T00:27:47;17.70;99.90
62573;DHT22;48626;51.678;5.806;2023-08-01T00:30:13;17.70;99.90
62573;DHT22;48626;51.678;5.806;2023-08-01T00:32:38;17.70;99.90
62573;DHT22;48626;51.678;5.806;2023-08-01T00:35:04;17.70;99.90
62573;DHT22;48626;51.678;5.806;2023-08-01T00:37:30;17.60;99.90
62573;DHT22;48626;51.678;5.806;2023-08-01T00:39:56;17.60;99.90
62573;DHT22;48626;51.678;5.806;2023-08-01T00:42:22;17.60;99.90
62573;DHT22;48626;51.678;5.806;2023-08-01T00:44:47;17.60;99.90
62573;DHT22;48626;51.678;5.806;2023-08-01T00:47:14;17.60;99.90
62573;DHT22;48626;51.678;5.806;2023-08-01T00:49:40;17.60;99.90
62573;DHT22;48626;51.678;5.806;2023-08-01T00:52:07;17.60;99.90
62573;DHT22;48626;51.678;5.806;2023-08-01T00:54:33;17.60;99.90
62573;DHT22;48626;51.678;5.806;2023-08-01T00:57:05;17.60;99.90
62573;DHT22;48626;51.678;5.806;2023-08-01T00:59:31;17.60;99.90
62573;DHT22;48626;51.678;5.806;2023-08-01T01:01:58;17.60;99.90
62573;DHT22;48626;51.678;5.806;2023-08-01T01:04:23;17.50;99.90
62573;DHT22;48626;51.678;5.806;2023-08-01T01:07:09;17.50;99.90
62573;DHT22;48626;51.678;5.806;2023-08-01T01:09:35;17.60;99.90
62573;DHT22;48626;51.678;5.806;2023-08-01T01:12:01;17.50;99.90
62573;DHT22;48626;51.678;5.806;2023-08-01T01:14:27;17.50;99.90
62573;DHT22;48626;51.678;5.806;2023-08-01T01:16:53;17.50;99.90
62573;DHT22;48626;51.678;5.806;2023-08-01T01:19:19;17.50;99.90
62573;DHT22;48626;51.678;5.806;2023-08-01T01:21:46;17.50;99.90
62573;DHT22;48626;51.678;5.806;2023-08-01T01:24:13;17.50;99.90
62573;DHT22;48626;51.678;5.806;2023-08-01T01:26:41;17.50;99.90
62573;DHT22;48626;51.678;5.806;2023-08-01T01:29:07;17.40;99.90
62573;DHT22;48626;51.678;5.806;2023-08-01T01:31:36;17.50;99.90
62573;DHT22;48626;51.678;5.806;2023-08-01T01:34:03;17.50;99.90
62573;DHT22;48626;51.678;5.806;2023-08-01T01:36:29;17.50;99.90
62573;DHT22;48626;51.678;5.806;2023-08-01T01:38:55;17.50;99.90
62573;DHT22;48626;51.678;5.806;2023-08-01T01:41:20;17.40;99.90
62573;DHT22;48626;51.678;5.806;2023-08-01T01:43:46;17.40;99.90
62573;DHT22;48626;51.678;5.806;2023-08-01T01:46:12;17.40;99.90
62573;DHT22;48626;51.678;5.806;2023-08-01T01:48:43;17.30;99.90
62573;DHT22;48626;51.678;5.806;2023-08-01T01:51:09;17.30;99.90
62573;DHT22;48626;51.678;5.806;2023-08-01T01:53:34;17.30;99.90
62573;DHT22;48626;51.678;5.806;2023-08-01T01:56:00;17.30;99.90
62573;DHT22;48626;51.678;5.806;2023-08-01T01:58:26;17.20;99.90
62573;DHT22;48626;51.678;5.806;2023-08-01T02:00:52;17.20;99.90
62573;DHT22;48626;51.678;5.806;2023-08-01T02:03:17;17.10;99.90
62573;DHT22;48626;51.678;5.806;2023-08-01T02:05:44;17.10;99.90
62573;DHT22;48626;51.678;5.806;2023-08-01T02:08:10;17.10;99.90
62573;DHT22;48626;51.678;5.806;2023-08-01T02:10:36;17.10;99.90
62573;DHT22;48626;51.678;5.806;2023-08-01T02:13:01;17.00;99.90
62573;DHT22;48626;51.678;5.806;2023-08-01T02:15:27;17.00;99.90
62573;DHT22;48626;51.678;5.806;2023-08-01T02:17:52;17.00;99.90
62573;DHT22;48626;51.678;5.806;2023-08-01T02:20:18;17.00;99.90
62573;DHT22;48626;51.678;5.806;2023-08-01T02:22:44;17.00;99.90
62573;DHT22;48626;51.678;5.806;2023-08-01T02:25:09;17.00;99.90
62573;DHT22;48626;51.678;5.806;2023-08-01T02:27:35;17.00;99.90
62573;DHT22;48626;51.678;5.806;2023-08-01T02:30:01;17.10;99.90
62573;DHT22;48626;51.678;5.806;2023-08-01T02:32:26;17.00;99.90
62573;DHT22;48626;51.678;5.806;2023-08-01T02:34:52;17.00;99.90
62573;DHT22;48626;51.678;5.806;2023-08-01T02:37:17;17.10;99.90
62573;DHT22;48626;51.678;5.806;2023-08-01T02:39:43;17.00;99.90
62573;DHT22;48626;51.678;5.806;2023-08-01T02:42:09;17.10;99.90
62573;DHT22;48626;51.678;5.806;2023-08-01T02:44:34;17.10;99.90
62573;DHT22;48626;51.678;5.806;2023-08-01T02:47:00;17.10;99.90
62573;DHT22;48626;51.678;5.806;2023-08-01T02:49:26;17.10;99.90
62573;DHT22;48626;51.678;5.806;2023-08-01T02:51:51;17.10;99.90
62573;DHT22;48626;51.678;5.806;2023-08-01T02:54:17;17.00;99.90
62573;DHT22;48626;51.678;5.806;2023-08-01T02:56:43;17.00;99.90
62573;DHT22;48626;51.678;5.806;2023-08-01T02:59:08;16.90;99.90
62573;DHT22;48626;51.678;5.806;2023-08-01T03:01:38;16.90;99.90
62573;DHT22;48626;51.678;5.806;2023-08-01T03:04:04;16.90;99.90
62573;DHT22;48626;51.678;5.806;2023-08-01T03:06:33;16.80;99.90
62573;DHT22;48626;51.678;5.806;2023-08-01T03:08:59;16.80;99.90
62573;DHT22;48626;51.678;5.806;2023-08-01T03:11:26;16.70;99.90
62573;DHT22;48626;51.678;5.806;2023-08-01T03:13:52;16.80;99.90
62573;DHT22;48626;51.678;5.806;2023-08-01T03:16:18;16.70;99.90
62573;DHT22;48626;51.678;5.806;2023-08-01T03:18:43;16.70;99.90
62573;DHT22;48626;51.678;5.806;2023-08-01T03:21:09;16.70;99.90
62573;DHT22;48626;51.678;5.806;2023-08-01T03:23:35;16.70;99.90
62573;DHT22;48626;51.678;5.806;2023-08-01T03:26:01;16.70;99.90
62573;DHT22;48626;51.678;5.806;2023-08-01T03:28:27;16.70;99.90
62573;DHT22;48626;51.678;5.806;2023-08-01T03:30:52;16.70;99.90
62573;DHT22;48626;51.678;5.806;2023-08-01T03:33:20;16.60;99.90
62573;DHT22;48626;51.678;5.806;2023-08-01T03:35:46;16.60;99.90
62573;DHT22;48626;51.678;5.806;2023-08-01T03:38:11;16.60;99.90
62573;DHT22;48626;51.678;5.806;2023-08-01T03:40:37;16.60;99.90
62573;DHT22;48626;51.678;5.806;2023-08-01T03:43:03;16.60;99.90
62573;DHT22;48626;51.678;5.806;2023-08-01T03:45:29;16.60;99.90
62573;DHT22;48626;51.678;5.806;2023-08-01T03:47:54;16.60;99.90
62573;DHT22;48626;51.678;5.806;2023-08-01T03:50:20;16.60;99.90
62573;DHT22;48626;51.678;5.806;2023-08-01T03:52:46;16.60;99.90
62573;DHT22;48626;51.678;5.806;2023-08-01T03:55:12;16.70;99.90
62573;DHT22;48626;51.678;5.806;2023-08-01T03:57:37;16.70;99.90
62573;DHT22;48626;51.678;5.806;2023-08-01T04:00:08;16.70;99.90
62573;DHT22;48626;51.678;5.806;2023-08-01T04:02:42;16.70;99.90
62573;DHT22;48626;51.678;5.806;2023-08-01T04:05:08;16.60;99.90
62573;DHT22;48626;51.678;5.806;2023-08-01T04:07:35;16.70;99.90
62573;DHT22;48626;51.678;5.806;2023-08-01T04:10:02;16.70;99.90
62573;DHT22;48626;51.678;5.806;2023-08-01T04:12:28;16.70;99.90
62573;DHT22;48626;51.678;5.806;2023-08-01T04:14:54;16.60;99.90
62573;DHT22;48626;51.678;5.806;2023-08-01T04:17:19;16.70;99.90
62573;DHT22;48626;51.678;5.806;2023-08-01T04:19:45;16.70;99.90
62573;DHT22;48626;51.678;5.806;2023-08-01T04:22:10;16.70;99.90
62573;DHT22;48626;51.678;5.806;2023-08-01T04:24:36;16.70;99.90
62573;DHT22;48626;51.678;5.806;2023-08-01T04:27:02;16.70;99.90
62573;DHT22;48626;51.678;5.806;2023-08-01T04:29:27;16.70;99.90
62573;DHT22;48626;51.678;5.806;2023-08-01T04:31:53;16.70;99.90
62573;DHT22;48626;51.678;5.806;2023-08-01T04:34:19;16.70;99.90
62573;DHT22;48626;51.678;5.806;2023-08-01T04:36:44;16.80;99.90
62573;DHT22;48626;51.678;5.806;2023-08-01T04:39:10;16.80;99.90
62573;DHT22;48626;51.678;5.806;2023-08-01T04:41:35;16.80;99.90
62573;DHT22;48626;51.678;5.806;2023-08-01T04:44:01;16.90;99.90
62573;DHT22;48626;51.678;5.806;2023-08-01T04:46:27;16.90;99.90
62573;DHT22;48626;51.678;5.806;2023-08-01T04:48:52;16.90;99.90
62573;DHT22;48626;51.678;5.806;2023-08-01T04:51:18;16.90;99.90
62573;DHT22;48626;51.678;5.806;2023-08-01T04:53:44;16.90;99.90
62573;DHT22;48626;51.678;5.806;2023-08-01T04:56:09;16.90;99.90
62573;DHT22;48626;51.678;5.806;2023-08-01T04:58:35;16.90;99.90
62573;DHT22;48626;51.678;5.806;2023-08-01T05:01:00;16.90;99.90
62573;DHT22;48626;51.678;5.806;2023-08-01T05:03:26;16.90;99.90
62573;DHT22;48626;51.678;5.806;2023-08-01T05:05:52;16.90;99.90
62573;DHT22;48626;51.678;5.806;2023-08-01T05:08:17;17.00;99.90
62573;DHT22;48626;51.678;5.806;2023-08-01T05:10:43;17.00;99.90
62573;DHT22;48626;51.678;5.806;2023-08-01T05:13:08;17.00;99.90
62573;DHT22;48626;51.678;5.806;2023-08-01T05:15:34;17.10;99.90
62573;DHT22;48626;51.678;5.806;2023-08-01T05:18:00;17.20;99.90
62573;DHT22;48626;51.678;5.806;2023-08-01T05:20:25;17.20;99.90
62573;DHT22;48626;51.678;5.806;2023-08-01T05:22:59;17.20;99.90
62573;DHT22;48626;51.678;5.806;2023-08-01T05:25:25;17.20;99.90
62573;DHT22;48626;51.678;5.806;2023-08-01T05:27:50;17.20;99.90
62573;DHT22;48626;51.678;5.806;2023-08-01T05:30:16;17.20;99.90
62573;DHT22;48626;51.678;5.806;2023-08-01T05:32:42;17.20;99.90
62573;DHT22;48626;51.678;5.806;2023-08-01T05:35:09;17.10;99.90
62573;DHT22;48626;51.678;5.806;2023-08-01T05:37:35;17.10;99.90
62573;DHT22;48626;51.678;5.806;2023-08-01T05:40:02;17.10;99.90
62573;DHT22;48626;51.678;5.806;2023-08-01T05:42:28;17.10;99.90
62573;DHT22;48626;51.678;5.806;2023-08-01T05:44:54;17.10;99.90
62573;DHT22;48626;51.678;5.806;2023-08-01T05:47:20;17.20;99.90
62573;DHT22;48626;51.678;5.806;2023-08-01T05:49:45;17.20;99.90
62573;DHT22;48626;51.678;5.806;2023-08-01T05:52:11;17.20;99.90
62573;DHT22;48626;51.678;5.806;2023-08-01T05:54:37;17.20;99.90
62573;DHT22;48626;51.678;5.806;2023-08-01T05:57:02;17.20;99.90
62573;DHT22;48626;51.678;5.806;2023-08-01T05:59:28;17.30;99.90
62573;DHT22;48626;51.678;5.806;2023-08-01T06:01:54;17.40;99.90
62573;DHT22;48626;51.678;5.806;2023-08-01T06:04:19;17.50;99.90
62573;DHT22;48626;51.678;5.806;2023-08-01T06:06:45;17.60;99.90
62573;DHT22;48626;51.678;5.806;2023-08-01T06:09:11;17.80;99.90
62573;DHT22;48626;51.678;5.806;2023-08-01T06:11:36;17.80;99.90
62573;DHT22;48626;51.678;5.806;2023-08-01T06:14:02;17.80;99.90
62573;DHT22;48626;51.678;5.806;2023-08-01T06:16:27;17.90;99.90
62573;DHT22;48626;51.678;5.806;2023-08-01T06:18:53;18.00;99.90
62573;DHT22;48626;51.678;5.806;2023-08-01T06:21:19;17.90;99.90
62573;DHT22;48626;51.678;5.806;2023-08-01T06:23:44;17.80;99.90
62573;DHT22;48626;51.678;5.806;2023-08-01T06:26:10;17.70;99.90
62573;DHT22;48626;51.678;5.806;2023-08-01T06:28:35;17.70;99.90
62573;DHT22;48626;51.678;5.806;2023-08-01T06:31:01;17.60;99.90
62573;DHT22;48626;51.678;5.806;2023-08-01T06:33:28;17.70;99.90
62573;DHT22;48626;51.678;5.806;2023-08-01T06:35:54;17.60;99.90
62573;DHT22;48626;51.678;5.806;2023-08-01T06:38:19;17.70;99.90
62573;DHT22;48626;51.678;5.806;2023-08-01T06:40:45;17.70;99.90
62573;DHT22;48626;51.678;5.806;2023-08-01T06:43:10;17.70;99.90
62573;DHT22;48626;51.678;5.806;2023-08-01T06:45:36;17.80;99.90
62573;DHT22;48626;51.678;5.806;2023-08-01T06:48:02;17.80;99.90
62573;DHT22;48626;51.678;5.806;2023-08-01T06:50:27;17.90;99.90
62573;DHT22;48626;51.678;5.806;2023-08-01T06:52:53;18.00;99.90
62573;DHT22;48626;51.678;5.806;2023-08-01T06:55:19;18.00;99.90
62573;DHT22;48626;51.678;5.806;2023-08-01T06:57:44;18.10;99.90
62573;DHT22;48626;51.678;5.806;2023-08-01T07:00:10;18.10;99.90
62573;DHT22;48626;51.678;5.806;2023-08-01T07:02:36;18.20;99.90
62573;DHT22;48626;51.678;5.806;2023-08-01T07:05:02;18.40;99.90
62573;DHT22;48626;51.678;5.806;2023-08-01T07:07:28;18.50;99.90
62573;DHT22;48626;51.678;5.806;2023-08-01T07:09:54;18.50;99.90
62573;DHT22;48626;51.678;5.806;2023-08-01T07:12:19;18.50;99.90
62573;DHT22;48626;51.678;5.806;2023-08-01T07:14:45;18.60;99.90
62573;DHT22;48626;51.678;5.806;2023-08-01T07:17:11;18.50;99.90
62573;DHT22;48626;51.678;5.806;2023-08-01T07:19:36;18.50;99.90
62573;DHT22;48626;51.678;5.806;2023-08-01T07:22:02;18.40;99.90
62573;DHT22;48626;51.678;5.806;2023-08-01T07:24:28;18.40;99.90
62573;DHT22;48626;51.678;5.806;2023-08-01T07:26:54;18.50;99.90
62573;DHT22;48626;51.678;5.806;2023-08-01T07:29:19;18.60;99.90
62573;DHT22;48626;51.678;5.806;2023-08-01T07:31:45;18.60;99.90
62573;DHT22;48626;51.678;5.806;2023-08-01T07:34:11;18.70;99.90
62573;DHT22;48626;51.678;5.806;2023-08-01T07:36:37;18.80;99.90
62573;DHT22;48626;51.678;5.806;2023-08-01T07:39:03;18.80;99.90
62573;DHT22;48626;51.678;5.806;2023-08-01T07:41:29;18.80;99.90
62573;DHT22;48626;51.678;5.806;2023-08-01T07:43:54;18.90;99.90
62573;DHT22;48626;51.678;5.806;2023-08-01T07:46:20;18.90;99.90
62573;DHT22;48626;51.678;5.806;2023-08-01T07:48:46;19.10;99.90
62573;DHT22;48626;51.678;5.806;2023-08-01T07:51:11;19.20;99.90
62573;DHT22;48626;51.678;5.806;2023-08-01T07:53:37;19.30;99.90
62573;DHT22;48626;51.678;5.806;2023-08-01T07:56:03;19.40;99.90
62573;DHT22;48626;51.678;5.806;2023-08-01T07:58:32;19.40;99.90
62573;DHT22;48626;51.678;5.806;2023-08-01T08:01:05;19.40;99.90
62573;DHT22;48626;51.678;5.806;2023-08-01T08:03:32;19.40;99.90
62573;DHT22;48626;51.678;5.806;2023-08-01T08:05:57;19.40;99.90
62573;DHT22;48626;51.678;5.806;2023-08-01T08:08:24;19.30;99.90
62573;DHT22;48626;51.678;5.806;2023-08-01T08:10:49;19.10;99.90
62573;DHT22;48626;51.678;5.806;2023-08-01T08:13:15;18.80;99.90
62573;DHT22;48626;51.678;5.806;2023-08-01T08:15:41;18.80;99.90
62573;DHT22;48626;51.678;5.806;2023-08-01T08:18:07;18.70;99.90
62573;DHT22;48626;51.678;5.806;2023-08-01T08:20:43;18.70;99.90
62573;DHT22;48626;51.678;5.806;2023-08-01T08:23:10;18.50;99.90
62573;DHT22;48626;51.678;5.806;2023-08-01T08:25:36;18.30;99.90
62573;DHT22;48626;51.678;5.806;2023-08-01T08:28:02;18.20;99.90
62573;DHT22;48626;51.678;5.806;2023-08-01T08:30:28;18.10;99.90
62573;DHT22;48626;51.678;5.806;2023-08-01T08:32:54;18.10;99.90
62573;DHT22;48626;51.678;5.806;2023-08-01T08:35:19;18.00;99.90
62573;DHT22;48626;51.678;5.806;2023-08-01T08:37:45;17.90;99.90
62573;DHT22;48626;51.678;5.806;2023-08-01T08:40:12;17.80;99.90
62573;DHT22;48626;51.678;5.806;2023-08-01T08:42:39;17.70;99.90
62573;DHT22;48626;51.678;5.806;2023-08-01T08:45:06;17.70;99.90
62573;DHT22;48626;51.678;5.806;2023-08-01T08:47:36;17.70;99.90
62573;DHT22;48626;51.678;5.806;2023-08-01T08:50:02;17.70;99.90
62573;DHT22;48626;51.678;5.806;2023-08-01T08:52:28;17.70;99.90
62573;DHT22;48626;51.678;5.806;2023-08-01T08:54:56;17.70;99.90
62573;DHT22;48626;51.678;5.806;2023-08-01T08:57:22;17.60;99.90
62573;DHT22;48626;51.678;5.806;2023-08-01T08:59:48;17.60;99.90
62573;DHT22;48626;51.678;5.806;2023-08-01T09:02:15;17.60;99.90
62573;DHT22;48626;51.678;5.806;2023-08-01T09:04:42;17.60;99.90
62573;DHT22;48626;51.678;5.806;2023-08-01T09:07:09;17.60;99.90
62573;DHT22;48626;51.678;5.806;2023-08-01T09:09:38;17.60;99.90
62573;DHT22;48626;51.678;5.806;2023-08-01T09:12:05;17.70;99.90
62573;DHT22;48626;51.678;5.806;2023-08-01T09:14:31;17.80;99.90
62573;DHT22;48626;51.678;5.806;2023-08-01T09:17:06;17.80;99.90
62573;DHT22;48626;51.678;5.806;2023-08-01T09:19:32;17.80;99.90
62573;DHT22;48626;51.678;5.806;2023-08-01T09:21:58;17.80;99.90
62573;DHT22;48626;51.678;5.806;2023-08-01T09:24:24;17.80;99.90
62573;DHT22;48626;51.678;5.806;2023-08-01T09:26:49;17.80;99.90
62573;DHT22;48626;51.678;5.806;2023-08-01T09:29:20;17.90;99.90
62573;DHT22;48626;51.678;5.806;2023-08-01T09:31:46;18.00;99.90
62573;DHT22;48626;51.678;5.806;2023-08-01T09:34:38;18.20;99.90
62573;DHT22;48626;51.678;5.806;2023-08-01T09:37:03;18.40;99.90
62573;DHT22;48626;51.678;5.806;2023-08-01T09:39:29;18.60;99.90
62573;DHT22;48626;51.678;5.806;2023-08-01T09:42:00;18.60;99.90
62573;DHT22;48626;51.678;5.806;2023-08-01T09:44:27;18.50;99.90
62573;DHT22;48626;51.678;5.806;2023-08-01T09:47:01;18.50;99.90
62573;DHT22;48626;51.678;5.806;2023-08-01T09:49:28;18.50;99.90
62573;DHT22;48626;51.678;5.806;2023-08-01T09:51:54;18.50;99.90
62573;DHT22;48626;51.678;5.806;2023-08-01T09:54:21;18.40;99.90
62573;DHT22;48626;51.678;5.806;2023-08-01T09:56:49;18.30;99.90
62573;DHT22;48626;51.678;5.806;2023-08-01T09:59:21;18.30;99.90
62573;DHT22;48626;51.678;5.806;2023-08-01T10:01:52;18.20;99.90
62573;DHT22;48626;51.678;5.806;2023-08-01T10:04:24;18.20;99.90
62573;DHT22;48626;51.678;5.806;2023-08-01T10:06:54;18.30;99.90
62573;DHT22;48626;51.678;5.806;2023-08-01T10:09:22;18.50;99.90
62573;DHT22;48626;51.678;5.806;2023-08-01T10:11:48;18.70;99.90
62573;DHT22;48626;51.678;5.806;2023-08-01T10:14:16;18.80;99.90
62573;DHT22;48626;51.678;5.806;2023-08-01T10:16:43;18.90;99.90
62573;DHT22;48626;51.678;5.806;2023-08-01T10:19:09;18.90;99.90
62573;DHT22;48626;51.678;5.806;2023-08-01T10:21:35;19.00;99.90
62573;DHT22;48626;51.678;5.806;2023-08-01T10:24:03;19.00;99.90
62573;DHT22;48626;51.678;5.806;2023-08-01T10:26:30;19.20;99.90
62573;DHT22;48626;51.678;5.806;2023-08-01T10:28:56;19.30;99.90
62573;DHT22;48626;51.678;5.806;2023-08-01T10:31:24;19.40;99.90
62573;DHT22;48626;51.678;5.806;2023-08-01T10:33:50;19.60;99.90
62573;DHT22;48626;51.678;5.806;2023-08-01T10:36:23;19.70;99.90
62573;DHT22;48626;51.678;5.806;2023-08-01T10:38:51;19.80;99.90
62573;DHT22;48626;51.678;5.806;2023-08-01T10:43:45;19.80;99.90
62573;DHT22;48626;51.678;5.806;2023-08-01T10:46:11;19.70;99.90
62573;DHT22;48626;51.678;5.806;2023-08-01T10:48:51;19.70;99.90
62573;DHT22;48626;51.678;5.806;2023-08-01T10:51:17;19.90;99.90
62573;DHT22;48626;51.678;5.806;2023-08-01T10:53:42;20.20;99.90
62573;DHT22;48626;51.678;5.806;2023-08-01T10:56:14;20.40;99.90
62573;DHT22;48626;51.678;5.806;2023-08-01T10:58:40;20.50;99.90
62573;DHT22;48626;51.678;5.806;2023-08-01T11:01:06;20.30;99.90
62573;DHT22;48626;51.678;5.806;2023-08-01T11:03:38;20.20;99.90
62573;DHT22;48626;51.678;5.806;2023-08-01T11:06:05;20.00;99.90
62573;DHT22;48626;51.678;5.806;2023-08-01T11:08:35;20.00;99.90
62573;DHT22;48626;51.678;5.806;2023-08-01T11:11:01;20.00;99.90
62573;DHT22;48626;51.678;5.806;2023-08-01T11:13:27;19.90;99.90
62573;DHT22;48626;51.678;5.806;2023-08-01T11:15:52;20.00;99.90
62573;DHT22;48626;51.678;5.806;2023-08-01T11:18:21;20.30;99.90
62573;DHT22;48626;51.678;5.806;2023-08-01T11:20:47;20.40;99.90
62573;DHT22;48626;51.678;5.806;2023-08-01T11:23:12;20.50;99.90
62573;DHT22;48626;51.678;5.806;2023-08-01T11:25:40;20.60;99.90
62573;DHT22;48626;51.678;5.806;2023-08-01T11:28:14;21.10;99.90
62573;DHT22;48626;51.678;5.806;2023-08-01T11:30:40;21.30;99.90
62573;DHT22;48626;51.678;5.806;2023-08-01T11:33:20;21.70;99.90
62573;DHT22;48626;51.678;5.806;2023-08-01T11:35:49;22.10;99.90
62573;DHT22;48626;51.678;5.806;2023-08-01T11:38:15;22.20;99.90
62573;DHT22;48626;51.678;5.806;2023-08-01T11:40:42;22.50;99.90
62573;DHT22;48626;51.678;5.806;2023-08-01T11:43:08;22.50;99.90
62573;DHT22;48626;51.678;5.806;2023-08-01T11:45:33;22.30;99.90
62573;DHT22;48626;51.678;5.806;2023-08-01T11:47:59;22.00;99.90
62573;DHT22;48626;51.678;5.806;2023-08-01T11:50:25;22.00;99.90
62573;DHT22;48626;51.678;5.806;2023-08-01T11:52:52;22.00;99.90
62573;DHT22;48626;51.678;5.806;2023-08-01T11:55:30;22.60;99.90
62573;DHT22;48626;51.678;5.806;2023-08-01T11:58:00;23.30;99.90
62573;DHT22;48626;51.678;5.806;2023-08-01T12:00:28;24.00;99.90
62573;DHT22;48626;51.678;5.806;2023-08-01T12:03:08;24.30;99.90
62573;DHT22;48626;51.678;5.806;2023-08-01T12:05:39;24.00;99.90
62573;DHT22;48626;51.678;5.806;2023-08-01T12:08:11;23.60;99.90
62573;DHT22;48626;51.678;5.806;2023-08-01T12:10:42;23.10;99.90
62573;DHT22;48626;51.678;5.806;2023-08-01T12:13:24;22.60;99.90
62573;DHT22;48626;51.678;5.806;2023-08-01T12:15:54;22.20;99.90
62573;DHT22;48626;51.678;5.806;2023-08-01T12:18:24;21.90;99.90
62573;DHT22;48626;51.678;5.806;2023-08-01T12:20:50;21.70;99.90
62573;DHT22;48626;51.678;5.806;2023-08-01T12:23:16;21.90;99.90
62573;DHT22;48626;51.678;5.806;2023-08-01T12:25:42;21.70;99.90
62573;DHT22;48626;51.678;5.806;2023-08-01T12:28:08;21.40;99.90
62573;DHT22;48626;51.678;5.806;2023-08-01T12:30:33;21.90;99.90
62573;DHT22;48626;51.678;5.806;2023-08-01T12:32:59;22.80;99.90
62573;DHT22;48626;51.678;5.806;2023-08-01T12:35:26;23.60;99.90
62573;DHT22;48626;51.678;5.806;2023-08-01T12:37:53;24.40;99.90
62573;DHT22;48626;51.678;5.806;2023-08-01T12:40:19;24.70;99.90
62573;DHT22;48626;51.678;5.806;2023-08-01T12:42:46;24.70;99.90
62573;DHT22;48626;51.678;5.806;2023-08-01T12:45:12;24.20;99.90
62573;DHT22;48626;51.678;5.806;2023-08-01T12:47:37;23.80;99.90
62573;DHT22;48626;51.678;5.806;2023-08-01T12:50:03;24.00;99.90
62573;DHT22;48626;51.678;5.806;2023-08-01T12:52:29;24.60;99.90
62573;DHT22;48626;51.678;5.806;2023-08-01T12:54:54;24.90;99.90
62573;DHT22;48626;51.678;5.806;2023-08-01T12:57:20;24.50;99.90
62573;DHT22;48626;51.678;5.806;2023-08-01T12:59:46;23.80;99.90
62573;DHT22;48626;51.678;5.806;2023-08-01T13:02:12;23.30;99.90
62573;DHT22;48626;51.678;5.806;2023-08-01T13:04:38;22.60;99.90
62573;DHT22;48626;51.678;5.806;2023-08-01T13:07:04;22.10;99.90
62573;DHT22;48626;51.678;5.806;2023-08-01T13:09:29;21.80;99.90
62573;DHT22;48626;51.678;5.806;2023-08-01T13:11:55;21.50;99.90
62573;DHT22;48626;51.678;5.806;2023-08-01T13:14:22;21.30;99.90
62573;DHT22;48626;51.678;5.806;2023-08-01T13:16:48;21.10;99.90
62573;DHT22;48626;51.678;5.806;2023-08-01T13:19:14;21.10;99.90
62573;DHT22;48626;51.678;5.806;2023-08-01T13:21:40;21.30;99.90
62573;DHT22;48626;51.678;5.806;2023-08-01T13:24:05;21.80;99.90
62573;DHT22;48626;51.678;5.806;2023-08-01T13:26:31;21.90;99.90
62573;DHT22;48626;51.678;5.806;2023-08-01T13:28:58;22.50;99.90
62573;DHT22;48626;51.678;5.806;2023-08-01T13:31:24;23.30;99.90
62573;DHT22;48626;51.678;5.806;2023-08-01T13:33:50;24.00;99.90
62573;DHT22;48626;51.678;5.806;2023-08-01T13:36:17;24.70;99.90
62573;DHT22;48626;51.678;5.806;2023-08-01T13:38:43;25.30;99.90
62573;DHT22;48626;51.678;5.806;2023-08-01T13:41:09;25.90;99.90
62573;DHT22;48626;51.678;5.806;2023-08-01T13:43:34;26.10;99.90
62573;DHT22;48626;51.678;5.806;2023-08-01T13:46:00;25.60;99.90
62573;DHT22;48626;51.678;5.806;2023-08-01T13:48:26;25.10;99.90
62573;DHT22;48626;51.678;5.806;2023-08-01T13:50:51;24.50;99.90
62573;DHT22;48626;51.678;5.806;2023-08-01T13:53:18;24.00;99.90
62573;DHT22;48626;51.678;5.806;2023-08-01T13:55:44;23.60;99.90
62573;DHT22;48626;51.678;5.806;2023-08-01T13:58:09;23.50;99.90
62573;DHT22;48626;51.678;5.806;2023-08-01T14:00:35;23.60;99.90
62573;DHT22;48626;51.678;5.806;2023-08-01T14:03:01;24.00;99.90
62573;DHT22;48626;51.678;5.806;2023-08-01T14:05:27;24.50;99.90
62573;DHT22;48626;51.678;5.806;2023-08-01T14:07:53;25.00;99.90
62573;DHT22;48626;51.678;5.806;2023-08-01T14:10:19;25.60;99.90
62573;DHT22;48626;51.678;5.806;2023-08-01T14:12:45;25.90;99.90
62573;DHT22;48626;51.678;5.806;2023-08-01T14:15:11;26.30;99.90
62573;DHT22;48626;51.678;5.806;2023-08-01T14:17:38;26.70;99.90
62573;DHT22;48626;51.678;5.806;2023-08-01T14:20:04;26.90;99.90
62573;DHT22;48626;51.678;5.806;2023-08-01T14:22:30;27.00;99.90
62573;DHT22;48626;51.678;5.806;2023-08-01T14:24:56;27.30;99.90
62573;DHT22;48626;51.678;5.806;2023-08-01T14:27:21;27.50;99.90
62573;DHT22;48626;51.678;5.806;2023-08-01T14:29:47;27.50;99.90
62573;DHT22;48626;51.678;5.806;2023-08-01T14:32:16;27.70;99.90
62573;DHT22;48626;51.678;5.806;2023-08-01T14:34:41;28.00;99.90
62573;DHT22;48626;51.678;5.806;2023-08-01T14:37:07;28.10;99.90
62573;DHT22;48626;51.678;5.806;2023-08-01T14:39:32;28.20;99.90
62573;DHT22;48626;51.678;5.806;2023-08-01T14:41:58;28.50;99.90
62573;DHT22;48626;51.678;5.806;2023-08-01T14:44:24;28.90;99.90
62573;DHT22;48626;51.678;5.806;2023-08-01T14:46:49;29.10;99.90
62573;DHT22;48626;51.678;5.806;2023-08-01T14:49:15;29.30;99.90
62573;DHT22;48626;51.678;5.806;2023-08-01T14:51:41;29.30;99.90
62573;DHT22;48626;51.678;5.806;2023-08-01T14:54:08;29.60;99.90
62573;DHT22;48626;51.678;5.806;2023-08-01T14:56:34;29.30;99.90
62573;DHT22;48626;51.678;5.806;2023-08-01T14:58:59;29.40;99.90
62573;DHT22;48626;51.678;5.806;2023-08-01T15:01:25;29.40;99.90
62573;DHT22;48626;51.678;5.806;2023-08-01T15:03:52;29.60;99.90
62573;DHT22;48626;51.678;5.806;2023-08-01T15:06:18;29.10;99.90
62573;DHT22;48626;51.678;5.806;2023-08-01T15:08:44;28.80;99.90
62573;DHT22;48626;51.678;5.806;2023-08-01T15:11:09;29.10;99.90
62573;DHT22;48626;51.678;5.806;2023-08-01T15:13:35;29.40;99.90
62573;DHT22;48626;51.678;5.806;2023-08-01T15:16:01;29.60;99.90
62573;DHT22;48626;51.678;5.806;2023-08-01T15:18:27;29.80;99.90
62573;DHT22;48626;51.678;5.806;2023-08-01T15:20:53;30.00;99.90
62573;DHT22;48626;51.678;5.806;2023-08-01T15:23:19;30.30;99.90
62573;DHT22;48626;51.678;5.806;2023-08-01T15:25:55;30.60;99.90
62573;DHT22;48626;51.678;5.806;2023-08-01T15:28:22;30.40;99.90